メインページ
METAR-TAF:

METAR-TAF

空港 :

東京 / 羽田国際空港, 日本

東京国際空港

緯度: 35-33N, 経度: 139-47E, 海抜: 5m

現時点の気象観測

当レポートは29分前の04:00(UTC)に作成
北東の風 3kt、から東/北東の間で変化する
気温 25°C
湿度 74%
気圧 1016 hPa
視程10km以上
高度2500ftの雲はほとんどない
高度4000ftの雲は散在している
千切れ雲あり
弱いにわか雨

METAR: RJTT 220400Z 05003KT 350V070 9999 -SHRA FEW025 SCT040 BKN/// 25/20 Q1016 BECMG 12010KT RMK 1CU025 4CU040 A3002

時間: 13:29 (04:29 UTC)

予報

当レポートは5時間18分前の23:11(UTC)に作成
予報は22日の 00時(UTC)から 23日の 06時(UTC)まで有効
北/北東の風 6kt
視程10km以上
高度1000ftの雲はほとんどない
高度2500ftの千切れ雲あり
22日の 03時(UTC)から 22日の 05時(UTC)まで徐々に
の風 14kt
22日の 09時(UTC)から 22日の 15時(UTC)まで一時的に
視程: 4000m
高度500ftの雲はほとんどない
高度800ftの千切れ雲あり
弱いにわか雨, 靄
22日の 15時(UTC)から 23日の 00時(UTC)まで一時的に
視程: 3000m
高度500ftの雲はほとんどない
高度800ftの千切れ雲あり
にわか雨, 靄
22日の 18時(UTC)から 22日の 21時(UTC)まで徐々に
の風 12kt
23日の 03時(UTC)から 23日の 06時(UTC)まで徐々に
の風 10kt

TAF: RJTT 212311Z 2200/2306 03006KT 9999 FEW010 BKN025 BECMG 2203/2205 10014KT TEMPO 2209/2215 4000 -SHRA BR FEW005 BKN008 TEMPO 2215/2300 3000 SHRA BR FEW005 BKN008 BECMG 2218/2221 01012KT BECMG 2303/2306 08010KT

4,000以上の空港の気象観測と天気予報(METAR報とTAF報)

利用可能な観測所は地図上に黄色い丸と赤い丸で示す。

丸の上にカーソルを重ねると観測所名を参照できる。

次にクリックすると気象観測と天気予報を参照できる。

マップの切り替え:黒色「×」印の緑ボタンをクリックして拡大、「-」印の緑ボタンをクリックして縮小、緑色の三角印をクリックして隣りの地図に切り替え


METAR-TAF: